Aroazes, Brazil
Current Conditions -  °F | °C
As of 2:00 PM on Friday 31 Oct 2014 (Local Time) from SBTE Reporting Station
Clear Clear  
Wind Chill: 99°   Ceiling: Unl
Heat Index: 99°   Visibility: 6mi
Dew Point: 57°   Wind: 7mph
Humidity: 25%   Direction: 100°E
Pressure: 29.77"   Gusts: NA
Location:  6.12°S, 41.79°W
Report Text: SBTE 311700Z 10006KT CAVOK 37/14 Q1008
Loading
Personal Weather Stations






























Interactive Weather Map
Tropical Storm Tracking
New forecast layout! Learn more

10-Day Weather Forecast

Advertisements
Track Severe Weather on mobile